Time;durP1;ratioP1;P1;durP2;ratioP2;P2;SDS_P1;SDS_P2;PMS_P1;PMS_P2;Temp;Humidity;BMP_temperature;BMP_pressure;BME280_temperature;BME280_humidity;BME280_pressure;Samples;Min_cycle;Max_cycle;Signal;HPM_P1;HPM_P2
2023/02/13 00:02:01;;;;;;;27.60;19.55;;;7.00;99.90;;;;;;5007594;28;20038;-65
2023/02/13 00:04:27;;;;;;;27.45;18.85;;;7.00;99.90;;;;;;5010704;28;20030;-65
2023/02/13 00:06:52;;;;;;;29.95;18.55;;;7.00;99.90;;;;;;5011691;28;20101;-65
2023/02/13 00:09:18;;;;;;;26.90;18.95;;;7.00;99.90;;;;;;5010241;28;20113;-65
2023/02/13 00:11:44;;;;;;;30.45;19.45;;;7.00;99.90;;;;;;5011099;28;20048;-66
2023/02/13 00:14:09;;;;;;;26.30;18.85;;;7.00;99.90;;;;;;4992978;28;20085;-65
2023/02/13 00:16:35;;;;;;;28.90;19.10;;;7.00;99.90;;;;;;5012155;28;20498;-65
2023/02/13 00:19:01;;;;;;;27.92;19.67;;;7.00;99.90;;;;;;5011022;28;20040;-65
2023/02/13 00:21:26;;;;;;;29.77;20.23;;;7.00;99.90;;;;;;5010089;28;20034;-65
2023/02/13 00:23:52;;;;;;;27.73;19.60;;;7.00;99.90;;;;;;5010554;28;20365;-65
2023/02/13 00:26:18;;;;;;;24.65;18.00;;;7.00;99.90;;;;;;4992326;28;20493;-65
2023/02/13 00:28:44;;;;;;;26.35;19.50;;;7.00;99.90;;;;;;5009364;28;20030;-66
2023/02/13 00:31:12;;;;;;;29.48;20.02;;;6.90;99.90;;;;;;5009803;28;20063;-66
2023/02/13 00:33:39;;;;;;;28.20;20.15;;;7.00;99.90;;;;;;5011830;28;20037;-65
2023/02/13 00:36:17;;;;;;;32.08;20.83;;;7.00;99.90;;;;;;4993239;28;20038;-65
2023/02/13 00:38:43;;;;;;;27.38;19.65;;;7.00;99.90;;;;;;4991463;28;20042;-65
2023/02/13 00:41:10;;;;;;;30.33;19.60;;;7.00;99.90;;;;;;5010641;28;20393;-65
2023/02/13 00:43:36;;;;;;;32.00;21.33;;;7.00;99.90;;;;;;4992858;28;20056;-65
2023/02/13 00:46:03;;;;;;;29.15;20.30;;;7.00;99.90;;;;;;5010511;28;20145;-66
2023/02/13 00:48:30;;;;;;;29.92;20.85;;;7.00;99.90;;;;;;5010577;28;20042;-66
2023/02/13 00:50:56;;;;;;;30.30;20.75;;;7.00;99.90;;;;;;5010393;28;20112;-66
2023/02/13 00:53:24;;;;;;;30.25;20.50;;;7.00;99.90;;;;;;5010068;28;20046;-66
2023/02/13 00:55:50;;;;;;;31.25;21.10;;;7.00;99.90;;;;;;4992908;28;20087;-67
2023/02/13 00:58:17;;;;;;;31.80;20.25;;;7.00;99.90;;;;;;5009236;28;20544;-66
2023/02/13 01:00:43;;;;;;;30.42;21.05;;;7.00;99.90;;;;;;5011249;28;20121;-66
2023/02/13 01:03:09;;;;;;;31.83;21.80;;;7.00;99.90;;;;;;4992458;28;20199;-66
2023/02/13 01:05:35;;;;;;;33.58;22.25;;;7.00;99.90;;;;;;5010457;28;20514;-66
2023/02/13 01:08:01;;;;;;;30.77;20.27;;;7.00;99.90;;;;;;5009375;28;20588;-66
2023/02/13 01:10:27;;;;;;;31.35;21.98;;;7.00;99.90;;;;;;5006782;28;20061;-66
2023/02/13 01:12:53;;;;;;;29.38;21.45;;;7.00;99.90;;;;;;5010189;28;20037;-66
2023/02/13 01:15:19;;;;;;;29.70;20.42;;;7.00;99.90;;;;;;5009459;28;20386;-66
2023/02/13 01:17:45;;;;;;;31.95;21.65;;;7.00;99.90;;;;;;5008427;28;20065;-65
2023/02/13 01:20:12;;;;;;;31.40;21.23;;;7.00;99.90;;;;;;4991579;28;20046;-66
2023/02/13 01:22:39;;;;;;;29.42;20.42;;;7.00;99.90;;;;;;5010386;28;20129;-66
2023/02/13 01:25:06;;;;;;;30.83;21.15;;;7.00;99.90;;;;;;5008319;28;20038;-65
2023/02/13 01:27:32;;;;;;;29.05;21.13;;;7.00;99.90;;;;;;5009725;28;20049;-66
2023/02/13 01:29:58;;;;;;;32.10;21.25;;;7.00;99.90;;;;;;5009427;28;20058;-66
2023/02/13 01:32:24;;;;;;;30.70;21.38;;;7.00;99.90;;;;;;5007909;28;20037;-66
2023/02/13 01:34:49;;;;;;;29.55;20.48;;;7.00;99.90;;;;;;5009410;28;20052;-64
2023/02/13 01:37:15;;;;;;;29.60;20.42;;;7.00;99.90;;;;;;5009082;28;20398;-66
2023/02/13 01:39:41;;;;;;;29.67;21.17;;;7.00;99.90;;;;;;5007155;28;20042;-65
2023/02/13 01:42:16;;;;;;;27.15;18.65;;;7.00;99.90;;;;;;5008227;28;20130;-65
2023/02/13 01:44:50;;;;;;;30.10;20.83;;;7.00;99.90;;;;;;4992566;28;20050;-66
2023/02/13 01:47:23;;;;;;;27.50;19.27;;;7.00;99.90;;;;;;5010326;28;20033;-65
2023/02/13 01:49:53;;;;;;;31.27;20.83;;;7.00;99.90;;;;;;5009084;28;20042;-65
2023/02/13 01:52:18;;;;;;;27.73;19.25;;;7.00;99.90;;;;;;5008726;28;20052;-65
2023/02/13 01:54:45;;;;;;;28.90;19.77;;;7.00;99.90;;;;;;5007966;28;20062;-65
2023/02/13 01:57:20;;;;;;;30.33;21.35;;;7.00;99.90;;;;;;5008207;28;20129;-65
2023/02/13 01:59:57;;;;;;;28.70;20.30;;;6.90;99.90;;;;;;4989696;28;20042;-66
2023/02/13 02:02:24;;;;;;;28.65;19.50;;;7.00;99.90;;;;;;5008944;28;20037;-66
2023/02/13 02:04:51;;;;;;;31.65;20.25;;;7.00;99.90;;;;;;5007488;28;20034;-66
2023/02/13 02:07:20;;;;;;;29.48;21.08;;;7.00;99.90;;;;;;5005890;28;20112;-66
2023/02/13 02:09:46;;;;;;;30.08;20.30;;;7.00;99.90;;;;;;5006651;28;20026;-66
2023/02/13 02:12:27;;;;;;;29.77;19.90;;;7.00;99.90;;;;;;4990152;28;20092;-65
2023/02/13 02:14:56;;;;;;;29.85;19.92;;;7.00;99.90;;;;;;5006436;28;20046;-65
2023/02/13 02:17:24;;;;;;;31.10;20.75;;;7.00;99.90;;;;;;5008825;28;20120;-66
2023/02/13 02:20:09;;;;;;;28.77;19.50;;;6.90;99.90;;;;;;5009129;28;20494;-65
2023/02/13 02:22:53;;;;;;;29.75;20.40;;;6.90;99.90;;;;;;5009598;28;20045;-65
2023/02/13 02:25:30;;;;;;;27.65;19.88;;;6.90;99.90;;;;;;5007631;28;20359;-65
2023/02/13 02:28:23;;;;;;;29.60;19.23;;;6.80;99.90;;;;;;5005756;28;20534;-65
2023/02/13 02:31:03;;;;;;;28.10;19.80;;;6.90;99.90;;;;;;5005506;28;20475;-66
2023/02/13 02:34:01;;;;;;;29.13;19.73;;;6.90;99.90;;;;;;5006885;28;20127;-65
2023/02/13 02:36:48;;;;;;;30.52;19.92;;;6.80;99.90;;;;;;5006541;28;20068;-66
2023/02/13 02:39:26;;;;;;;30.95;19.92;;;6.90;99.90;;;;;;5005671;28;20100;-66
2023/02/13 02:42:09;;;;;;;30.48;20.08;;;6.80;99.90;;;;;;5006777;28;20105;-66
2023/02/13 02:44:44;;;;;;;29.40;19.35;;;6.80;99.90;;;;;;5008407;28;20076;-66
2023/02/13 02:50:50;;;;;;;26.88;17.77;;;6.80;99.90;;;;;;4897252;29;20423;-65
2023/02/13 02:53:25;;;;;;;27.77;18.13;;;6.80;99.90;;;;;;5006720;28;20358;-65
2023/02/13 02:56:08;;;;;;;25.63;17.67;;;6.80;99.90;;;;;;5007315;28;20157;-65
2023/02/13 03:07:31;;;;;;;28.77;18.80;;;6.70;99.90;;;;;;5005827;28;20228;-66
2023/02/13 03:25:05;;;;;;;30.10;19.60;;;6.70;99.90;;;;;;4964772;28;20072;-66
2023/02/13 03:31:14;;;;;;;27.70;17.70;;;6.70;99.90;;;;;;5005755;28;20038;-66
2023/02/13 03:33:57;;;;;;;29.10;18.90;;;6.70;99.90;;;;;;5005884;28;20042;-66
2023/02/13 03:39:22;;;;;;;27.20;18.55;;;6.70;99.90;;;;;;5009608;28;20045;-66
2023/02/13 03:42:03;;;;;;;27.52;18.02;;;6.70;99.90;;;;;;4993501;28;20410;-65
2023/02/13 03:44:37;;;;;;;25.98;17.40;;;6.80;99.90;;;;;;5012051;28;20077;-64
2023/02/13 03:47:05;;;;;;;;;;;6.70;99.90;;;;;;4990350;28;20104;-65
2023/02/13 03:50:04;;;;;;;27.27;18.33;;;6.70;99.90;;;;;;5010410;28;19925;-65
2023/02/13 03:52:44;;;;;;;26.13;17.58;;;6.70;99.90;;;;;;5009561;28;20172;-64
2023/02/13 04:01:00;;;;;;;28.38;18.77;;;6.70;99.90;;;;;;5011061;28;20104;-65
2023/02/13 04:03:47;;;;;;;29.20;19.05;;;6.70;99.90;;;;;;5007725;28;20179;-65
2023/02/13 04:06:19;;;;;;;28.15;18.63;;;6.70;99.90;;;;;;5009358;28;20092;-65
2023/02/13 04:08:44;;;;;;;29.25;19.80;;;6.70;99.90;;;;;;5011109;28;20034;-66
2023/02/13 04:11:19;;;;;;;28.38;17.60;;;6.70;99.90;;;;;;5010614;28;20044;-65
2023/02/13 04:13:56;;;;;;;27.17;18.73;;;6.70;99.90;;;;;;4981828;28;20092;-65
2023/02/13 04:16:41;;;;;;;27.52;18.77;;;6.70;99.90;;;;;;5006897;28;20128;-66
2023/02/13 04:19:08;;;;;;;30.98;17.45;;;6.70;99.90;;;;;;4991856;28;20973;-66
2023/02/13 04:21:37;;;;;;;25.25;18.50;;;6.70;99.90;;;;;;5010291;28;20050;-66
2023/02/13 04:24:03;;;;;;;27.52;18.65;;;6.60;99.90;;;;;;5009900;28;20080;-66
2023/02/13 04:26:39;;;;;;;25.55;17.75;;;6.70;99.90;;;;;;5010003;28;20096;-65
2023/02/13 04:29:04;;;;;;;29.60;18.58;;;6.70;99.90;;;;;;5009742;28;20104;-65
2023/02/13 04:31:30;;;;;;;27.92;18.77;;;6.70;99.90;;;;;;5010937;28;20045;-66
2023/02/13 04:33:56;;;;;;;27.38;17.65;;;6.70;99.90;;;;;;5011427;28;20127;-66
2023/02/13 04:36:22;;;;;;;28.15;19.38;;;6.70;99.90;;;;;;5009602;28;20725;-66
2023/02/13 04:38:48;;;;;;;25.33;17.58;;;6.70;99.90;;;;;;5010294;28;20073;-66
2023/02/13 04:41:14;;;;;;;25.25;17.02;;;6.60;99.90;;;;;;5009038;28;20038;-63
2023/02/13 04:43:40;;;;;;;27.48;19.27;;;6.70;99.90;;;;;;5010268;28;20037;-65
2023/02/13 04:46:05;;;;;;;28.27;18.17;;;6.70;99.90;;;;;;4991830;28;20056;-66
2023/02/13 04:48:31;;;;;;;25.10;17.92;;;6.60;99.90;;;;;;4992357;28;20490;-65
2023/02/13 04:50:57;;;;;;;26.33;17.60;;;6.60;99.90;;;;;;5008492;28;20077;-65
2023/02/13 04:53:23;;;;;;;27.67;18.65;;;6.60;99.90;;;;;;4992160;28;20146;-65
2023/02/13 04:55:48;;;;;;;27.45;18.60;;;6.70;99.90;;;;;;5009506;28;20537;-65
2023/02/13 04:58:14;;;;;;;27.10;18.88;;;6.60;99.90;;;;;;5010284;28;20049;-65
2023/02/13 05:00:40;;;;;;;28.33;17.85;;;6.70;99.90;;;;;;5010482;28;20147;-65
2023/02/13 05:03:08;;;;;;;28.38;18.67;;;6.70;99.90;;;;;;5009925;28;20042;-65
2023/02/13 05:05:34;;;;;;;30.02;19.35;;;6.60;99.90;;;;;;4993774;28;20046;-65
2023/02/13 05:08:00;;;;;;;28.08;18.95;;;6.60;99.90;;;;;;5010552;28;20065;-65
2023/02/13 05:10:27;;;;;;;25.60;17.58;;;6.70;99.90;;;;;;5011805;28;20052;-65
2023/02/13 05:12:52;;;;;;;30.33;19.88;;;6.60;99.90;;;;;;5008516;28;20422;-65
2023/02/13 05:15:19;;;;;;;26.88;19.13;;;6.70;99.90;;;;;;4994281;28;20124;-65
2023/02/13 05:17:45;;;;;;;28.48;19.15;;;6.70;99.90;;;;;;5011755;28;20124;-65
2023/02/13 05:20:12;;;;;;;26.08;18.02;;;6.60;99.90;;;;;;5008324;28;20056;-66
2023/02/13 05:25:31;;;;;;;26.90;18.35;;;6.60;99.90;;;;;;4994170;28;20067;-65
2023/02/13 05:27:57;;;;;;;26.52;18.55;;;6.60;99.90;;;;;;5010573;28;20060;-65
2023/02/13 05:30:23;;;;;;;28.95;18.48;;;6.60;99.90;;;;;;4993952;28;20077;-65
2023/02/13 05:32:53;;;;;;;28.13;19.15;;;6.60;99.90;;;;;;5008365;28;20494;-66
2023/02/13 05:35:23;;;;;;;28.95;18.92;;;6.70;99.90;;;;;;5009773;28;20045;-66
2023/02/13 05:37:49;;;;;;;25.88;18.27;;;6.60;99.90;;;;;;5010950;28;20038;-65
2023/02/13 05:40:15;;;;;;;28.63;18.95;;;6.60;99.90;;;;;;5010932;28;20099;-65
2023/02/13 05:42:41;;;;;;;25.77;18.10;;;6.60;99.90;;;;;;5008744;28;20046;-65
2023/02/13 05:45:08;;;;;;;30.52;19.20;;;6.60;99.90;;;;;;5003604;28;20046;-65
2023/02/13 05:47:33;;;;;;;28.20;19.23;;;6.60;99.90;;;;;;4993459;28;20395;-65
2023/02/13 05:49:59;;;;;;;28.63;18.80;;;6.60;99.90;;;;;;5010163;28;20034;-65
2023/02/13 05:52:25;;;;;;;26.52;18.63;;;6.60;99.90;;;;;;5006236;28;20418;-65
2023/02/13 05:54:51;;;;;;;29.25;18.80;;;6.60;99.90;;;;;;5008348;28;20085;-66
2023/02/13 05:57:17;;;;;;;26.23;18.08;;;6.60;99.90;;;;;;5009162;28;20434;-66
2023/02/13 05:59:43;;;;;;;27.02;18.90;;;6.60;99.90;;;;;;4998668;28;20103;-66
2023/02/13 06:02:09;;;;;;;30.77;18.77;;;6.60;99.90;;;;;;5006654;28;20038;-65
2023/02/13 06:04:34;;;;;;;27.38;18.83;;;6.60;99.90;;;;;;5008990;28;20406;-65
2023/02/13 06:07:00;;;;;;;28.85;19.20;;;6.60;99.90;;;;;;5010920;28;20052;-65
2023/02/13 06:09:26;;;;;;;27.08;18.63;;;6.60;99.90;;;;;;5009925;28;20087;-65
2023/02/13 06:11:51;;;;;;;26.05;18.58;;;6.60;99.90;;;;;;5010715;28;20096;-65
2023/02/13 06:14:17;;;;;;;25.77;17.70;;;6.60;99.90;;;;;;5010476;28;20034;-65
2023/02/13 06:16:43;;;;;;;27.10;18.38;;;6.60;99.90;;;;;;5010730;28;20087;-65
2023/02/13 06:19:09;;;;;;;28.52;18.23;;;6.60;99.90;;;;;;5007887;28;20026;-66
2023/02/13 06:21:36;;;;;;;27.85;20.58;;;6.60;99.90;;;;;;4990795;28;20046;-64
2023/02/13 06:24:07;;;;;;;30.10;20.27;;;6.60;99.90;;;;;;5008999;28;20108;-64
2023/02/13 06:26:33;;;;;;;32.83;21.35;;;6.60;99.90;;;;;;5009127;28;20390;-65
2023/02/13 06:28:59;;;;;;;32.72;21.83;;;6.60;99.90;;;;;;5010385;28;20058;-65
2023/02/13 06:31:24;;;;;;;31.73;20.67;;;6.60;99.90;;;;;;5009955;28;20038;-65
2023/02/13 06:33:50;;;;;;;26.88;20.20;;;6.60;99.90;;;;;;5009322;28;20442;-65
2023/02/13 06:36:16;;;;;;;25.00;18.17;;;6.60;99.90;;;;;;5008319;28;20042;-66
2023/02/13 06:38:42;;;;;;;28.83;19.48;;;6.60;99.90;;;;;;5005323;28;20073;-65
2023/02/13 06:41:08;;;;;;;28.48;19.48;;;6.60;99.90;;;;;;5005584;28;20030;-65
2023/02/13 06:43:35;;;;;;;29.13;19.17;;;6.70;99.90;;;;;;5008160;28;20080;-65
2023/02/13 06:46:04;;;;;;;27.88;19.33;;;6.70;99.90;;;;;;5008514;28;20064;-65
2023/02/13 06:48:30;;;;;;;29.55;19.75;;;6.70;99.90;;;;;;5005562;28;20046;-65
2023/02/13 06:50:56;;;;;;;30.27;19.83;;;6.60;99.90;;;;;;5009807;28;20045;-65
2023/02/13 06:53:23;;;;;;;25.73;18.33;;;6.60;99.90;;;;;;5009202;28;20053;-65
2023/02/13 06:55:52;;;;;;;31.30;20.33;;;6.70;99.90;;;;;;5006568;28;20077;-66
2023/02/13 06:58:18;;;;;;;29.63;18.63;;;6.70;99.90;;;;;;5008587;28;20053;-65
2023/02/13 07:00:44;;;;;;;33.65;19.40;;;6.60;99.90;;;;;;5006703;28;20418;-64
2023/02/13 07:03:10;;;;;;;24.80;17.77;;;6.60;99.90;;;;;;5007607;28;20057;-65
2023/02/13 07:05:40;;;;;;;28.95;17.88;;;6.60;99.90;;;;;;4987569;28;20046;-65
2023/02/13 07:08:05;;;;;;;26.02;18.75;;;6.60;99.90;;;;;;4972965;28;20482;-65
2023/02/13 07:10:31;;;;;;;25.25;17.45;;;6.60;99.90;;;;;;5008772;28;20100;-65
2023/02/13 07:12:57;;;;;;;27.45;18.67;;;6.60;99.90;;;;;;5008493;28;20053;-65
2023/02/13 07:15:23;;;;;;;25.83;18.02;;;6.60;99.90;;;;;;5003867;28;20429;-65
2023/02/13 07:17:56;;;;;;;27.95;18.10;;;6.60;99.90;;;;;;4987483;28;20104;-65
2023/02/13 07:20:21;;;;;;;25.45;17.05;;;6.60;99.90;;;;;;5003671;28;20030;-65
2023/02/13 07:22:47;;;;;;;25.25;17.88;;;6.60;99.90;;;;;;5001921;28;20049;-65
2023/02/13 07:25:14;;;;;;;24.83;17.70;;;6.60;99.90;;;;;;5007726;28;20473;-65
2023/02/13 07:27:40;;;;;;;28.90;18.08;;;6.60;99.90;;;;;;4988807;28;20128;-65
2023/02/13 07:30:06;;;;;;;27.95;17.15;;;6.70;99.90;;;;;;5006251;28;20113;-64
2023/02/13 07:32:32;;;;;;;26.08;17.48;;;6.60;99.90;;;;;;5007581;28;20413;-65
2023/02/13 07:34:57;;;;;;;27.42;18.75;;;6.70;99.90;;;;;;5008228;28;20034;-64
2023/02/13 07:37:23;;;;;;;27.48;18.63;;;6.60;99.90;;;;;;5008518;28;20058;-65
2023/02/13 07:39:49;;;;;;;26.05;17.65;;;6.70;99.90;;;;;;4987418;28;20061;-65
2023/02/13 07:42:15;;;;;;;27.27;18.05;;;6.70;99.90;;;;;;4987972;28;20113;-65
2023/02/13 07:44:40;;;;;;;27.17;18.10;;;6.70;99.90;;;;;;5005063;28;20533;-65
2023/02/13 07:47:06;;;;;;;26.77;18.17;;;6.70;99.90;;;;;;5006818;28;20092;-65
2023/02/13 07:49:32;;;;;;;27.55;18.48;;;6.70;99.90;;;;;;5007076;28;20045;-65
2023/02/13 07:51:57;;;;;;;24.67;16.52;;;6.70;99.90;;;;;;4989816;28;20125;-64
2023/02/13 07:54:23;;;;;;;27.08;17.75;;;6.70;99.90;;;;;;5006308;28;20034;-65
2023/02/13 07:56:49;;;;;;;27.02;17.98;;;6.80;99.90;;;;;;5006801;28;20049;-65
2023/02/13 07:59:15;;;;;;;26.25;16.55;;;6.80;99.90;;;;;;5008978;28;20065;-65
2023/02/13 08:01:40;;;;;;;29.38;18.67;;;6.80;99.90;;;;;;4991932;28;20034;-66
2023/02/13 08:04:06;;;;;;;24.88;17.92;;;6.80;99.90;;;;;;4990526;28;20084;-66
2023/02/13 08:06:32;;;;;;;27.02;17.23;;;6.80;99.90;;;;;;4999972;28;20579;-67
2023/02/13 08:11:52;;;;;;;23.83;16.55;;;6.90;99.90;;;;;;4987928;28;20046;-67
2023/02/13 08:14:25;;;;;;;27.00;16.27;;;6.80;99.90;;;;;;4989092;28;20125;-67
2023/02/13 08:16:51;;;;;;;23.30;16.58;;;6.90;99.90;;;;;;5004035;28;20517;-67
2023/02/13 08:19:17;;;;;;;27.35;17.42;;;6.90;99.90;;;;;;5007350;28;20067;-67
2023/02/13 08:21:43;;;;;;;26.10;16.48;;;6.90;99.90;;;;;;5007398;28;20088;-67
2023/02/13 08:24:09;;;;;;;26.15;16.98;;;6.90;99.90;;;;;;4990924;28;20037;-67
2023/02/13 08:26:35;;;;;;;26.70;17.58;;;7.00;99.90;;;;;;5010669;28;20402;-67
2023/02/13 08:29:01;;;;;;;25.20;17.05;;;7.00;99.90;;;;;;5011405;28;20045;-67
2023/02/13 08:31:27;;;;;;;25.15;17.45;;;7.00;99.90;;;;;;5011635;28;20057;-67
2023/02/13 08:33:52;;;;;;;20.42;16.00;;;7.10;99.90;;;;;;5009132;28;20122;-67
2023/02/13 08:36:18;;;;;;;25.67;17.42;;;7.10;99.90;;;;;;5009296;28;20038;-67
2023/02/13 08:38:47;;;;;;;24.52;16.80;;;7.10;99.90;;;;;;5004324;28;20037;-67
2023/02/13 08:41:14;;;;;;;27.95;17.42;;;7.10;99.90;;;;;;5009604;28;20026;-67
2023/02/13 08:43:39;;;;;;;23.85;16.63;;;7.10;99.90;;;;;;5008516;28;20050;-67
2023/02/13 08:46:05;;;;;;;25.55;17.23;;;7.20;99.90;;;;;;4990366;28;20445;-67
2023/02/13 08:48:31;;;;;;;28.83;16.85;;;7.20;99.90;;;;;;5009105;28;20085;-67
2023/02/13 08:50:57;;;;;;;25.83;17.55;;;7.20;99.90;;;;;;5010956;28;20494;-67
2023/02/13 08:53:22;;;;;;;26.65;16.98;;;7.20;99.90;;;;;;5011853;28;20049;-67
2023/02/13 08:55:56;;;;;;;25.13;16.88;;;7.30;99.90;;;;;;5011401;28;20136;-67
2023/02/13 08:58:22;;;;;;;25.58;17.00;;;7.30;99.90;;;;;;5013020;28;20042;-67
2023/02/13 09:00:48;;;;;;;27.27;16.65;;;7.30;99.90;;;;;;5010531;28;20053;-66
2023/02/13 09:03:14;;;;;;;26.90;17.58;;;7.30;99.90;;;;;;5011346;28;20038;-67
2023/02/13 09:05:39;;;;;;;26.30;17.60;;;7.40;99.90;;;;;;4991613;28;20414;-67
2023/02/13 09:08:06;;;;;;;23.15;16.13;;;7.40;99.90;;;;;;4992883;28;20077;-67
2023/02/13 09:10:33;;;;;;;25.70;15.90;;;7.40;99.90;;;;;;5005959;28;20406;-67
2023/02/13 09:13:00;;;;;;;26.10;17.25;;;7.40;99.90;;;;;;5010661;28;20473;-67
2023/02/13 09:15:26;;;;;;;25.92;16.50;;;7.50;99.90;;;;;;5009398;28;20506;-67
2023/02/13 09:17:52;;;;;;;25.35;16.63;;;7.50;99.90;;;;;;4993407;28;20144;-67
2023/02/13 09:20:18;;;;;;;23.60;16.05;;;7.50;99.90;;;;;;4991696;28;20148;-67
2023/02/13 09:22:43;;;;;;;21.38;15.38;;;7.50;99.90;;;;;;5010124;28;20472;-67
2023/02/13 09:25:09;;;;;;;25.15;16.80;;;7.50;99.90;;;;;;4969851;28;20133;-67
2023/02/13 09:27:37;;;;;;;26.23;17.42;;;7.50;99.90;;;;;;5009394;28;20042;-67
2023/02/13 09:30:05;;;;;;;23.80;16.95;;;7.50;99.90;;;;;;4992482;28;20048;-67
2023/02/13 09:32:31;;;;;;;22.67;16.23;;;7.50;99.90;;;;;;5009504;28;20056;-67
2023/02/13 09:34:56;;;;;;;25.15;16.27;;;7.60;99.90;;;;;;5010940;28;20038;-67
2023/02/13 09:37:23;;;;;;;24.85;16.23;;;7.60;99.90;;;;;;5008875;28;20131;-67
2023/02/13 09:39:48;;;;;;;23.75;16.63;;;7.60;99.90;;;;;;5007040;28;20250;-67
2023/02/13 09:42:19;;;;;;;26.95;18.00;;;7.60;99.90;;;;;;5004982;28;20521;-68
2023/02/13 09:44:46;;;;;;;24.38;15.80;;;7.70;99.90;;;;;;5007632;28;20509;-67
2023/02/13 09:47:41;;;;;;;23.42;15.65;;;7.70;99.90;;;;;;5004136;28;20042;-67
2023/02/13 09:50:33;;;;;;;24.10;15.82;;;7.70;99.90;;;;;;5000778;28;20072;-68
2023/02/13 09:53:16;;;;;;;25.80;16.45;;;7.70;99.90;;;;;;4987797;28;20136;-67
2023/02/13 09:56:08;;;;;;;25.35;16.33;;;7.70;99.90;;;;;;4988759;28;20057;-67
2023/02/13 09:58:48;;;;;;;23.13;16.20;;;7.80;99.90;;;;;;4991255;28;20053;-67
2023/02/13 10:01:18;;;;;;;25.38;16.33;;;7.80;99.90;;;;;;5005642;28;20065;-67
2023/02/13 10:03:54;;;;;;;25.02;16.38;;;7.80;99.90;;;;;;5014596;28;20050;-67
2023/02/13 10:06:48;;;;;;;25.80;17.05;;;7.90;99.90;;;;;;5015402;28;20056;-67
2023/02/13 10:09:38;;;;;;;24.73;15.43;;;8.00;99.90;;;;;;4991291;28;20044;-67
2023/02/13 10:12:14;;;;;;;24.05;16.52;;;7.90;99.90;;;;;;5006812;28;20050;-67
2023/02/13 10:15:17;;;;;;;21.75;15.52;;;8.00;99.90;;;;;;4990926;28;20042;-67
2023/02/13 10:17:46;;;;;;;25.25;16.67;;;8.10;99.90;;;;;;5007527;28;20096;-65
2023/02/13 10:20:25;;;;;;;23.17;16.15;;;8.10;99.90;;;;;;5010869;28;20050;-66
2023/02/13 10:23:25;;;;;;;27.17;18.10;;;8.10;99.90;;;;;;5009693;28;20136;-66
2023/02/13 10:26:01;;;;;;;25.70;16.98;;;8.20;99.90;;;;;;5003850;28;20053;-66
2023/02/13 10:28:36;;;;;;;23.40;15.73;;;8.20;99.90;;;;;;5010248;28;20030;-66
2023/02/13 10:31:12;;;;;;;24.45;16.30;;;8.30;99.90;;;;;;5011073;28;20052;-66
2023/02/13 10:33:50;;;;;;;25.73;17.25;;;8.30;99.90;;;;;;5007343;28;20053;-66
2023/02/13 10:36:21;;;;;;;26.38;16.67;;;8.40;99.90;;;;;;5010292;28;20132;-66
2023/02/13 10:39:04;;;;;;;24.23;15.88;;;8.40;99.90;;;;;;5009027;28;20124;-66
2023/02/13 10:41:47;;;;;;;24.83;16.73;;;8.40;99.90;;;;;;5009469;28;20135;-67
2023/02/13 10:44:47;;;;;;;23.70;15.27;;;8.50;99.90;;;;;;5010178;28;20076;-66
2023/02/13 10:47:46;;;;;;;24.10;16.35;;;8.50;99.90;;;;;;5009418;28;23215;-67
2023/02/13 10:50:47;;;;;;;24.23;17.13;;;8.60;99.90;;;;;;5009783;28;20029;-67
2023/02/13 10:53:32;;;;;;;23.77;17.02;;;8.70;99.90;;;;;;5006005;28;20080;-67
2023/02/13 10:56:06;;;;;;;23.88;17.63;;;8.70;99.90;;;;;;5009807;28;20141;-67
2023/02/13 10:58:44;;;;;;;;;;;8.80;99.90;;;;;;5009855;28;20056;-67
2023/02/13 11:01:31;;;;;;;24.70;16.77;;;8.80;99.90;;;;;;5009035;28;19921;-67
2023/02/13 11:04:07;;;;;;;27.10;18.35;;;8.80;99.90;;;;;;5008299;28;20490;-67
2023/02/13 11:06:36;;;;;;;24.98;18.10;;;8.80;99.90;;;;;;5006265;28;20080;-67
2023/02/13 11:09:06;;;;;;;24.00;17.27;;;8.90;99.90;;;;;;5005867;28;20113;-67
2023/02/13 11:11:37;;;;;;;25.30;17.92;;;9.00;99.90;;;;;;5006929;28;20124;-67
2023/02/13 11:14:15;;;;;;;25.33;17.77;;;9.00;99.90;;;;;;5009338;28;20038;-67
2023/02/13 11:17:06;;;;;;;25.00;18.55;;;9.00;99.90;;;;;;5010094;28;20042;-67
2023/02/13 11:19:56;;;;;;;25.75;18.67;;;9.10;99.90;;;;;;5007488;28;20049;-67
2023/02/13 11:22:41;;;;;;;24.35;18.45;;;9.10;99.90;;;;;;5009988;28;20482;-67
2023/02/13 11:25:16;;;;;;;;;;;9.10;99.90;;;;;;5009903;28;20042;-67
2023/02/13 11:27:43;;;;;;;21.75;16.95;;;9.10;99.90;;;;;;5008548;28;20059;-67
2023/02/13 11:30:34;;;;;;;27.60;18.23;;;9.20;99.90;;;;;;5009696;28;20319;-67
2023/02/13 11:33:03;;;;;;;26.90;18.75;;;9.30;99.90;;;;;;5004020;28;20739;-67
2023/02/13 11:35:34;;;;;;;27.05;19.13;;;9.20;99.90;;;;;;5009234;28;20038;-66
2023/02/13 11:38:26;;;;;;;26.75;19.17;;;9.30;99.90;;;;;;4991326;28;20475;-67
2023/02/13 11:41:04;;;;;;;27.38;20.15;;;9.30;99.90;;;;;;4981195;28;20112;-67
2023/02/13 11:43:45;;;;;;;28.33;19.80;;;9.40;99.90;;;;;;5008896;28;20405;-67
2023/02/13 11:46:16;;;;;;;28.75;20.75;;;9.50;99.90;;;;;;5009138;28;20401;-67
2023/02/13 11:48:42;;;;;;;29.38;19.98;;;9.50;99.90;;;;;;4991238;28;20041;-67
2023/02/13 11:51:08;;;;;;;27.88;20.33;;;9.60;99.90;;;;;;5007630;28;20037;-66
2023/02/13 11:53:38;;;;;;;25.00;20.17;;;9.70;99.90;;;;;;5007441;28;20041;-67
2023/02/13 11:56:13;;;;;;;25.02;20.13;;;9.70;99.90;;;;;;4991940;28;20188;-67
2023/02/13 11:58:40;;;;;;;25.08;19.58;;;9.80;99.90;;;;;;5009754;28;20088;-67
2023/02/13 12:01:20;;;;;;;26.70;19.60;;;9.80;99.90;;;;;;5013467;28;20042;-66
2023/02/13 12:04:20;;;;;;;25.55;19.67;;;9.90;99.90;;;;;;5013590;28;20049;-67
2023/02/13 12:07:02;;;;;;;25.95;20.08;;;9.90;99.90;;;;;;4990686;28;20056;-67
2023/02/13 12:09:29;;;;;;;25.98;19.98;;;10.00;99.90;;;;;;4998894;28;20046;-67
2023/02/13 12:11:59;;;;;;;26.10;20.10;;;10.00;99.90;;;;;;5014470;28;20038;-67
2023/02/13 12:14:39;;;;;;;28.23;21.88;;;10.10;99.90;;;;;;5012342;28;20123;-67
2023/02/13 12:17:07;;;;;;;24.17;20.52;;;10.20;99.90;;;;;;4996304;28;20056;-67
2023/02/13 12:19:50;;;;;;;27.85;21.80;;;10.20;99.90;;;;;;4995007;28;20108;-67
2023/02/13 12:22:28;;;;;;;25.90;20.58;;;10.20;99.90;;;;;;5012819;28;20338;-67
2023/02/13 12:25:19;;;;;;;24.25;20.17;;;10.30;99.90;;;;;;4989881;28;20509;-67
2023/02/13 12:27:54;;;;;;;26.30;21.75;;;10.30;99.90;;;;;;4994794;28;20413;-67
2023/02/13 12:30:33;;;;;;;27.48;21.35;;;10.30;99.90;;;;;;4994808;28;20049;-67
2023/02/13 12:33:27;;;;;;;24.73;20.40;;;10.40;99.90;;;;;;4995539;28;20053;-67
2023/02/13 12:35:56;;;;;;;22.77;19.98;;;10.40;99.90;;;;;;5013267;28;20080;-67
2023/02/13 12:38:43;;;;;;;23.42;20.90;;;10.40;99.90;;;;;;4992489;28;20045;-66
2023/02/13 12:41:22;;;;;;;24.13;20.05;;;10.50;99.90;;;;;;5006500;28;20172;-65
2023/02/13 12:44:25;;;;;;;21.67;19.15;;;10.50;99.90;;;;;;5009282;28;20402;-65
2023/02/13 12:47:16;;;;;;;21.27;19.08;;;10.60;99.90;;;;;;5010881;28;20042;-66
2023/02/13 12:50:02;;;;;;;23.55;21.15;;;10.50;99.90;;;;;;5010112;28;20034;-65
2023/02/13 12:52:49;;;;;;;22.27;20.10;;;10.50;99.90;;;;;;5004784;28;20085;-66
2023/02/13 12:55:45;;;;;;;20.73;18.63;;;10.50;99.90;;;;;;5006958;28;20038;-66
2023/02/13 12:58:40;;;;;;;20.63;18.55;;;10.40;99.90;;;;;;5008201;28;20528;-65
2023/02/13 13:01:18;;;;;;;22.23;20.02;;;10.40;99.90;;;;;;5006985;28;20092;-65
2023/02/13 13:04:11;;;;;;;21.70;19.52;;;10.30;99.90;;;;;;5010058;28;20049;-66
2023/02/13 13:07:01;;;;;;;24.33;21.15;;;10.30;99.90;;;;;;4986028;28;20133;-66
2023/02/13 13:09:45;;;;;;;23.85;21.35;;;10.40;99.90;;;;;;4990445;28;20038;-66
2023/02/13 13:12:29;;;;;;;23.23;20.73;;;10.40;99.90;;;;;;5009959;28;20045;-65
2023/02/13 13:15:09;;;;;;;24.25;21.73;;;10.40;99.90;;;;;;4992204;28;20077;-67
2023/02/13 13:17:43;;;;;;;22.77;20.42;;;10.40;99.90;;;;;;5012017;28;20069;-67
2023/02/13 13:20:41;;;;;;;24.97;22.33;;;10.40;99.90;;;;;;5011639;28;20477;-67
2023/02/13 13:23:30;;;;;;;25.83;22.58;;;10.40;99.90;;;;;;5011792;28;20081;-67
2023/02/13 13:26:03;;;;;;;24.85;22.20;;;10.40;99.90;;;;;;4993998;28;20345;-67
2023/02/13 13:28:37;;;;;;;25.67;23.08;;;10.50;99.90;;;;;;5009182;28;20498;-67
2023/02/13 13:31:04;;;;;;;25.02;22.42;;;10.60;99.90;;;;;;5011069;28;20042;-67
2023/02/13 13:33:32;;;;;;;29.83;26.63;;;10.60;99.90;;;;;;5007963;28;20046;-67
2023/02/13 13:36:07;;;;;;;27.95;25.05;;;10.60;99.90;;;;;;5010798;28;20349;-67
2023/02/13 13:39:01;;;;;;;27.95;25.02;;;10.60;99.90;;;;;;5011117;28;20034;-67
2023/02/13 13:42:06;;;;;;;27.77;25.02;;;10.50;99.90;;;;;;5007881;28;20444;-67
2023/02/13 13:44:41;;;;;;;27.37;24.43;;;10.50;99.90;;;;;;4908150;29;20056;-67
2023/02/13 13:47:42;;;;;;;28.38;25.27;;;10.50;99.90;;;;;;4997906;28;20038;-67